ENLE

Ekofisk Oil Platform

Ekofisk, Norway
METAR ENLE 181450Z 28012KT 9999 VCSH FEW020CB SCT060 04/01 Q0992 W07/S4
Observed Flight Rules
Jan-18 @ 14:50 UTC (45 minutes ago) Visual Flight Rules
Wind Visibility Clouds
280° at 12 knots 10,000+ meters
  • Few at 2,000' AGL
  • Scattered at 6,000' AGL
Temperatures Readings
Current 4°C / 39°F
Dewpoint 1°C / 34°F
Humidity 81%
Altimeter 29.29" Hg
Pressure 992 hPa
Elevation 3
METAR ENLE 181450Z 28012KT 9999 VCSH FEW020CB SCT060 04/01 Q0992 W07/S4
Observed Flight Rules
Jan-18 @ 14:50 UTC
(45 minutes ago)
VFR
Wind Visibility
280° at 12 knots 10,000+ meters
Clouds
  • Few at 2,000' AGL
  • Scattered at 6,000' AGL
Temperature Dewpoint
4°C / 39°F 1°C / 34°F
Humidity Altimeter Pressure
81% 29.29" Hg 992 hPa